首页
METAR-TAF:

METAR-TAF

机场 :

奥古斯塔, 喬治亞, 美国

纬度: 33-21-52N, 经度: 081-57-48W, 海拔: 44米

当前天气观测

该预报发布于1小时和4分钟前的06:53 UTC
风速9节,风向北转西北
温度 -2°C
湿度 59%
气压 1028 hPa
能見度: 16.1公里
天空无云

METAR: KAGS 220653Z AUTO 34009KT 10SM CLR M02/M09 A3036 RMK AO2 SLP281 T10221089

时间: 02:57 (07:57 UTC)

预报

该预报发布于2小时和32分钟前的05:25 UTC
预报有效从22日的 06点(UTC)到 23日的 06点(UTC)
风速7节,风向
能見度: 10公里
天空无云
从 22日的 1300点(UTC)
风速10节,风向北转东北,有时为16节阵风
能見度: 10公里
散云层高于25000英尺
从 22日的 1800点(UTC)
风速8节,风向北转东北
能見度: 10公里
多云层高于25000英尺

TAF: KAGS 220525Z 2206/2306 36007KT P6SM SKC WS020/03030KT FM221300 02010G16KT P6SM SCT250 FM221800 03008KT P6SM BKN250

超过4000个机场的气象观测和天气预报(METAR&TAF报告)。

可查询的气象台以黄色和红色小点在地图上表示。

将鼠标移到小点上方,可查看气象台名称。

然后点击查看天气观测和预报。

如需切换地图:点击带黑十字的绿色按钮放大地图;点击带横线的绿色按钮缩小地图;或者点击绿色箭头查看邻近地区的地图。


METAR-TAF: